Аэропорт
Международный аэропорт Тэгу (RKTN)

 RKTN / TAE

Korea, Republic of
KR-27
Тэгу
 35.89410, 128.65900  / 116 ft

 RKTN 182200Z 34001KT CAVOK 13/11 Q1017
 TAF RKTN 181700Z 1818/1924 30006KT 9999 SCT030 TN14/1821Z TX26/1906Z

2020 © VATRUS division (Privacy Policy)